Time;durP1;ratioP1;P1;durP2;ratioP2;P2;SDS_P1;SDS_P2;PMS_P1;PMS_P2;Temp;Humidity;BMP_temperature;BMP_pressure;BME280_temperature;BME280_humidity;BME280_pressure;Samples;Min_cycle;Max_cycle;Signal;HPM_P1;HPM_P2
2021/07/03 00:00:11;;;;;;;;;0.00;0.00;;;;;23.90;49.72;100876.94;5041453;28;45401;-64
2021/07/03 00:02:36;;;;;;;;;0.00;0.00;;;;;23.88;49.73;100870.97;5024424;28;45347;-62
2021/07/03 00:05:03;;;;;;;;;0.00;0.00;;;;;23.86;50.24;100866.81;5052559;28;45205;-62
2021/07/03 00:07:28;;;;;;;;;0.00;0.00;;;;;23.80;49.89;100879.22;5041279;28;45487;-63
2021/07/03 00:09:54;;;;;;;;;0.00;0.00;;;;;23.78;49.95;100888.47;5023662;28;45380;-62
2021/07/03 00:12:19;;;;;;;;;1.00;0.00;;;;;23.73;50.62;100887.19;5041999;28;45323;-62
2021/07/03 00:14:45;;;;;;;;;0.00;0.00;;;;;23.70;50.12;100884.09;5061595;28;45456;-62
2021/07/03 00:17:10;;;;;;;;;0.00;0.00;;;;;23.68;50.52;100883.47;5061247;28;45500;-62
2021/07/03 00:19:35;;;;;;;;;0.00;0.00;;;;;23.64;50.37;100879.53;5053511;28;45243;-63
2021/07/03 00:22:01;;;;;;;;;0.00;0.00;;;;;23.61;50.62;100877.28;5041498;28;45543;-62
2021/07/03 00:24:26;;;;;;;;;1.00;1.00;;;;;23.61;50.30;100877.28;5041650;28;45594;-62
2021/07/03 00:26:52;;;;;;;;;0.00;0.00;;;;;23.60;50.53;100878.28;5040809;28;46336;-62
2021/07/03 00:29:17;;;;;;;;;0.00;0.00;;;;;23.56;50.83;100872.50;5041195;28;45281;-62
2021/07/03 00:31:43;;;;;;;;;0.00;0.00;;;;;23.56;50.92;100869.81;5041249;28;45319;-62
2021/07/03 00:34:09;;;;;;;;;0.00;0.00;;;;;23.53;51.07;100871.03;5041486;28;45546;-63
2021/07/03 00:36:34;;;;;;;;;0.00;0.00;;;;;23.51;50.81;100867.75;5023280;28;46138;-63
2021/07/03 00:38:59;;;;;;;;;0.00;0.00;;;;;23.49;50.48;100867.09;5041078;28;45206;-63
2021/07/03 00:41:25;;;;;;;;;0.00;0.00;;;;;23.49;51.04;100869.78;5040776;28;45316;-64
2021/07/03 00:43:50;;;;;;;;;0.00;0.00;;;;;23.46;50.92;100872.06;5041152;28;45499;-62
2021/07/03 00:46:15;;;;;;;;;0.00;0.00;;;;;23.41;51.49;100877.19;5040212;28;46302;-63
2021/07/03 00:48:41;;;;;;;;;0.00;0.00;;;;;23.36;51.31;100867.06;5041212;28;45272;-62
2021/07/03 00:51:06;;;;;;;;;0.00;0.00;;;;;23.33;51.27;100868.31;5040526;28;46466;-62
2021/07/03 00:53:32;;;;;;;;;0.00;0.00;;;;;23.30;51.73;100871.41;5041196;28;45223;-62
2021/07/03 00:55:58;;;;;;;;;0.00;0.00;;;;;23.28;51.29;100869.91;5035490;28;47286;-62
2021/07/03 00:58:24;;;;;;;;;0.00;0.00;;;;;23.26;51.96;100866.59;5023028;28;45484;-62
2021/07/03 01:00:50;;;;;;;;;0.00;0.00;;;;;23.22;51.51;100866.19;5040945;28;45321;-62
2021/07/03 01:03:15;;;;;;;;;0.00;0.00;;;;;23.21;51.73;100864.53;5044601;28;45633;-62
2021/07/03 01:05:41;;;;;;;;;0.00;0.00;;;;;23.17;52.05;100863.28;5046696;28;46493;-62
2021/07/03 01:08:06;;;;;;;;;0.00;0.00;;;;;23.13;52.05;100860.19;5040441;28;45298;-62
2021/07/03 01:10:31;;;;;;;;;0.00;0.00;;;;;23.07;52.52;100863.66;5033227;28;45375;-62
2021/07/03 01:12:58;;;;;;;;;0.00;0.00;;;;;23.04;52.58;100866.72;5047344;28;46065;-61
2021/07/03 01:15:24;;;;;;;;;0.00;0.00;;;;;23.02;52.26;100858.03;5060660;28;45366;-62
2021/07/03 01:17:50;;;;;;;;;0.00;0.00;;;;;22.98;52.75;100859.47;5060873;28;45235;-62
2021/07/03 01:20:18;;;;;;;;;0.00;0.00;;;;;22.93;52.66;100859.22;5060903;28;45376;-61
2021/07/03 01:22:45;;;;;;;;;0.00;0.00;;;;;22.90;53.06;100857.75;5061059;28;45416;-62
2021/07/03 01:25:11;;;;;;;;;0.00;0.00;;;;;22.85;53.37;100840.63;5060445;28;45386;-63
2021/07/03 01:27:38;;;;;;;;;0.00;0.00;;;;;22.84;53.26;100842.47;5060248;28;45538;-61
2021/07/03 01:30:06;;;;;;;;;0.00;0.00;;;;;22.79;53.17;100841.44;5060544;28;45382;-61
2021/07/03 01:32:31;;;;;;;;;0.00;0.00;;;;;22.77;53.22;100828.22;5042423;28;45518;-62
2021/07/03 01:34:57;;;;;;;;;0.00;0.00;;;;;22.72;53.15;100827.97;5060443;28;45889;-63
2021/07/03 01:37:22;;;;;;;;;0.00;0.00;;;;;22.73;53.62;100838.50;5060578;28;45206;-62
2021/07/03 01:39:49;;;;;;;;;0.00;0.00;;;;;22.75;53.43;100835.63;5042556;28;45230;-62
2021/07/03 01:42:14;;;;;;;;;0.00;0.00;;;;;22.73;53.62;100835.81;5060009;28;45524;-62
2021/07/03 01:44:40;;;;;;;;;0.00;0.00;;;;;22.72;53.97;100836.84;5060211;28;46312;-62
2021/07/03 01:47:05;;;;;;;;;0.00;0.00;;;;;22.75;53.97;100832.13;5060591;28;45264;-62
2021/07/03 01:49:45;;;;;;;;;0.00;0.00;;;;;22.75;53.47;100832.94;5060521;28;45280;-62
2021/07/03 01:52:10;;;;;;;;;0.00;0.00;;;;;22.74;53.56;100828.59;5060120;28;45587;-63
2021/07/03 01:54:36;;;;;;;;;2.50;1.00;;;;;22.71;53.69;100821.78;5059948;28;45244;-61
2021/07/03 01:57:02;;;;;;;;;0.00;0.00;;;;;22.71;53.63;100834.38;5051516;28;45280;-62
2021/07/03 01:59:30;;;;;;;;;0.00;0.00;;;;;22.70;53.93;100822.03;5042291;28;45274;-62
2021/07/03 02:01:57;;;;;;;;;0.00;0.00;;;;;22.71;53.69;100819.13;5043826;28;45453;-62
2021/07/03 02:04:23;;;;;;;;;0.00;0.00;;;;;22.74;53.95;100825.94;5053829;28;45415;-62
2021/07/03 02:06:48;;;;;;;;;0.00;0.00;;;;;22.77;53.64;100827.41;5043466;28;45260;-62
2021/07/03 02:09:18;;;;;;;;;0.00;0.00;;;;;22.76;53.70;100826.56;5043484;28;45587;-62
2021/07/03 02:11:44;;;;;;;;;0.00;0.00;;;;;22.75;53.57;100819.56;5043234;28;45620;-62
2021/07/03 02:14:10;;;;;;;;;0.00;0.00;;;;;22.71;53.58;100820.97;5059698;28;45347;-63
2021/07/03 02:16:36;;;;;;;;;0.00;0.00;;;;;22.70;54.00;100817.47;5063544;28;45361;-63
2021/07/03 02:19:03;;;;;;;;;0.00;0.00;;;;;22.70;53.98;100827.38;5063373;28;45264;-62
2021/07/03 02:21:29;;;;;;;;;0.00;0.00;;;;;22.68;53.95;100827.56;5063651;28;45527;-62
2021/07/03 02:23:55;;;;;;;;;0.00;0.00;;;;;22.62;54.16;100820.31;5059540;28;46711;-62
2021/07/03 02:26:21;;;;;;;;;0.00;0.00;;;;;22.62;54.04;100822.97;5043115;28;46429;-61
2021/07/03 02:28:47;;;;;;;;;0.00;0.00;;;;;22.60;54.47;100824.22;5043240;28;45173;-62
2021/07/03 02:31:12;;;;;;;;;0.00;0.00;;;;;22.53;54.60;100826.84;5043482;28;45148;-61
2021/07/03 02:33:37;;;;;;;;;0.00;0.00;;;;;22.44;54.87;100826.16;5042852;28;45260;-61
2021/07/03 02:36:03;;;;;;;;;0.00;0.00;;;;;22.40;54.44;100821.41;5043220;28;45270;-61
2021/07/03 02:38:28;;;;;;;;;0.00;0.00;;;;;22.38;55.11;100821.59;5043265;28;45192;-61
2021/07/03 02:40:54;;;;;;;;;0.00;0.00;;;;;22.32;54.77;100819.69;5042967;28;45439;-62
2021/07/03 02:43:19;;;;;;;;;0.00;0.00;;;;;22.28;55.14;100821.91;5042791;28;46698;-62
2021/07/03 02:45:44;;;;;;;;;0.00;0.00;;;;;22.22;55.47;100822.69;5042882;28;45257;-62
2021/07/03 02:48:10;;;;;;;;;0.00;0.00;;;;;22.20;55.30;100813.16;5043116;28;45314;-62
2021/07/03 02:50:35;;;;;;;;;0.00;0.00;;;;;22.16;55.75;100822.59;5042995;28;45319;-63
2021/07/03 02:53:01;;;;;;;;;0.00;0.00;;;;;22.16;55.53;100815.44;5042480;28;47470;-62
2021/07/03 02:55:27;;;;;;;;;0.00;0.00;;;;;22.17;55.56;100817.06;5051080;28;45314;-62
2021/07/03 02:57:52;;;;;;;;;0.00;0.00;;;;;22.17;55.93;100817.06;5046471;28;45312;-63
2021/07/03 03:00:18;;;;;;;;;0.00;0.00;;;;;22.20;55.63;100819.38;5043017;28;45372;-62
2021/07/03 03:02:44;;;;;;;;;0.00;0.00;;;;;22.23;55.69;100816.31;5042472;28;46258;-62
2021/07/03 03:05:11;;;;;;;;;0.00;0.00;;;;;22.24;55.76;100815.28;5052752;28;45337;-62
2021/07/03 03:07:38;;;;;;;;;0.00;0.00;;;;;22.24;55.19;100812.63;5042626;28;45161;-62
2021/07/03 03:10:05;;;;;;;;;0.00;0.00;;;;;22.25;55.19;100813.47;5042865;28;45204;-61
2021/07/03 03:12:31;;;;;;;;;1.00;0.00;;;;;22.28;55.50;100810.41;5045476;28;45282;-62
2021/07/03 03:14:57;;;;;;;;;0.00;0.00;;;;;22.26;55.02;100812.44;5062670;28;45369;-61
2021/07/03 03:17:22;;;;;;;;;0.00;0.00;;;;;22.28;55.34;100805.88;5062583;28;45598;-61
2021/07/03 03:19:48;;;;;;;;;1.25;1.25;;;;;22.27;54.72;100809.56;5062752;28;45654;-62
2021/07/03 03:22:13;;;;;;;;;0.00;0.00;;;;;22.30;54.83;100808.34;5062477;28;45307;-61
2021/07/03 03:24:38;;;;;;;;;0.00;0.00;;;;;22.29;54.98;100804.03;5062428;28;45303;-61
2021/07/03 03:27:04;;;;;;;;;0.00;0.00;;;;;22.31;55.11;100807.31;5062124;28;45568;-62
2021/07/03 03:29:29;;;;;;;;;0.00;0.00;;;;;22.31;54.55;100808.16;5062542;28;45293;-62
2021/07/03 03:31:54;;;;;;;;;0.00;0.00;;;;;22.31;55.04;100805.50;5062058;28;46257;-62
2021/07/03 03:34:19;;;;;;;;;0.00;0.00;;;;;22.31;55.10;100804.63;5062157;28;45360;-62
2021/07/03 03:36:45;;;;;;;;;1.00;1.00;;;;;22.28;54.98;100805.03;5062585;28;45237;-63
2021/07/03 03:39:10;;;;;;;;;0.00;0.00;;;;;22.23;55.21;100797.59;5062435;28;45534;-62
2021/07/03 03:41:36;;;;;;;;;0.00;0.00;;;;;22.26;54.86;100799.06;5061773;28;45278;-62
2021/07/03 03:44:01;;;;;;;;;0.00;0.00;;;;;22.23;54.82;100797.59;5061800;28;48472;-61
2021/07/03 03:46:26;;;;;;;;;0.00;0.00;;;;;22.24;54.91;100796.56;5062445;28;45271;-61
2021/07/03 03:48:52;;;;;;;;;0.00;0.00;;;;;22.27;55.10;100806.91;5062323;28;45296;-62
2021/07/03 03:51:17;;;;;;;;;0.00;0.00;;;;;22.24;55.11;100809.94;5061731;28;45519;-61
2021/07/03 03:53:42;;;;;;;;;0.00;0.00;;;;;22.23;54.70;100813.66;5061813;28;45311;-62
2021/07/03 03:56:08;;;;;;;;;0.00;0.00;;;;;22.25;55.05;100816.16;5060335;28;45245;-62
2021/07/03 03:58:33;;;;;;;;;0.00;0.00;;;;;22.24;55.09;100815.28;5042102;28;45489;-61
2021/07/03 04:00:59;;;;;;;;;0.00;0.00;;;;;22.23;55.21;100813.66;5041770;28;45201;-62
2021/07/03 04:03:24;;;;;;;;;0.00;0.00;;;;;22.25;54.90;100816.97;5046487;28;45373;-62
2021/07/03 04:05:49;;;;;;;;;0.00;0.00;;;;;22.25;54.94;100816.97;5047438;28;45374;-63
2021/07/03 04:08:15;;;;;;;;;0.00;0.00;;;;;22.24;55.37;100828.66;5042140;28;45232;-63
2021/07/03 04:10:40;;;;;;;;;0.00;0.00;;;;;22.22;55.41;100824.50;5034616;28;47497;-63
2021/07/03 04:13:05;;;;;;;;;0.00;0.00;;;;;22.22;55.37;100822.69;5048892;28;45384;-63
2021/07/03 04:15:31;;;;;;;;;0.00;0.00;;;;;22.21;55.50;100820.19;5061727;28;45496;-62
2021/07/03 04:17:56;;;;;;;;;0.00;0.00;;;;;22.17;55.50;100825.09;5061519;28;45536;-63
2021/07/03 04:20:22;;;;;;;;;0.00;0.00;;;;;22.18;55.66;100829.44;5061588;28;46389;-63
2021/07/03 04:22:47;;;;;;;;;4.00;4.00;;;;;22.20;55.34;100823.88;5060924;28;45512;-63
2021/07/03 04:25:15;;;;;;;;;0.00;0.00;;;;;22.21;55.62;100828.22;5061692;28;45268;-63
2021/07/03 04:27:43;;;;;;;;;0.00;0.00;;;;;22.23;55.66;100823.53;5043420;28;45475;-63
2021/07/03 04:30:10;;;;;;;;;0.00;0.00;;;;;22.27;55.41;100828.31;5061231;28;46411;-63
2021/07/03 04:32:35;;;;;;;;;0.00;0.00;;;;;22.30;55.27;100833.25;5052916;28;45512;-63
2021/07/03 04:35:05;;;;;;;;;0.00;0.00;;;;;22.32;55.40;100825.84;5041248;28;45378;-62
2021/07/03 04:37:30;;;;;;;;;0.00;0.00;;;;;22.37;55.22;100829.81;5041706;28;45373;-63
2021/07/03 04:39:56;;;;;;;;;0.00;0.00;;;;;22.42;55.49;100824.69;5041187;28;45406;-63
2021/07/03 04:42:21;;;;;;;;;0.00;0.00;;;;;22.46;55.16;100832.16;5040493;28;45792;-62
2021/07/03 04:44:47;;;;;;;;;0.00;0.00;;;;;22.50;54.86;100835.25;5041165;28;45490;-63
2021/07/03 04:47:12;;;;;;;;;0.00;0.00;;;;;22.55;55.02;100827.47;5041483;28;45402;-63
2021/07/03 04:49:37;;;;;;;;;0.00;0.00;;;;;22.58;54.79;100831.59;5041042;28;45535;-63
2021/07/03 04:52:03;;;;;;;;;0.00;0.00;;;;;22.63;55.12;100834.50;5040794;28;45287;-62
2021/07/03 04:54:28;;;;;;;;;0.00;0.00;;;;;22.64;54.80;100828.97;5023390;28;45474;-64
2021/07/03 04:57:11;;;;;;;;;0.00;0.00;;;;;22.65;54.67;100843.19;5053565;28;45425;-63
2021/07/03 04:59:37;;;;;;;;;0.00;0.00;;;;;22.69;54.86;100836.41;5040984;28;45406;-63
2021/07/03 05:02:04;;;;;;;;;0.00;0.00;;;;;22.71;55.12;100837.88;5040697;28;45383;-62
2021/07/03 05:04:29;;;;;;;;;0.00;0.00;;;;;22.73;54.96;100840.34;5051279;28;45338;-63
2021/07/03 05:06:55;;;;;;;;;0.00;0.00;;;;;22.71;54.58;100842.41;5041284;28;45477;-63
2021/07/03 05:09:20;;;;;;;;;0.00;0.00;;;;;22.67;54.90;100830.44;5040685;28;46878;-62
2021/07/03 05:11:45;;;;;;;;;0.00;0.00;;;;;22.71;55.12;100835.19;5040502;28;45379;-63
2021/07/03 05:14:11;;;;;;;;;0.00;0.00;;;;;22.77;54.91;100827.41;5057546;28;45362;-63
2021/07/03 05:16:36;;;;;;;;;0.00;0.00;;;;;22.81;54.81;100823.31;5061242;28;45590;-63
2021/07/03 05:19:01;;;;;;;;;0.00;0.00;;;;;22.82;54.65;100817.75;5060743;28;45346;-63
2021/07/03 05:21:27;;;;;;;;;0.00;0.00;;;;;22.88;54.66;100822.31;5060766;28;45284;-63
2021/07/03 05:23:52;;;;;;;;;0.00;0.00;;;;;22.94;54.65;100823.38;5060819;28;45293;-62
2021/07/03 05:26:17;;;;;;;;;0.00;0.00;;;;;22.95;54.88;100816.97;5060585;28;45298;-62
2021/07/03 05:28:43;;;;;;;;;0.00;0.00;;;;;22.98;54.53;100819.28;5060670;28;45322;-62
2021/07/03 05:31:08;;;;;;;;;0.00;0.00;;;;;23.04;54.72;100817.66;5060387;28;45271;-62
2021/07/03 05:33:34;;;;;;;;;0.00;0.00;;;;;23.09;54.35;100818.75;5061456;28;45389;-62
2021/07/03 05:36:01;;;;;;;;;0.00;0.00;;;;;23.14;54.29;100815.47;5064330;28;45471;-62
2021/07/03 05:38:27;;;;;;;;;0.00;0.00;;;;;23.13;54.13;100803.91;5063812;28;46162;-63
2021/07/03 05:40:52;;;;;;;;;0.00;0.00;;;;;23.16;54.71;100809.91;5063761;28;45228;-62
2021/07/03 05:43:17;;;;;;;;;0.00;0.00;;;;;23.22;54.14;100819.78;5063697;28;45232;-63
2021/07/03 05:45:44;;;;;;;;;0.00;0.00;;;;;23.23;54.21;100821.47;5064166;28;45509;-63
2021/07/03 05:48:09;;;;;;;;;0.00;0.00;;;;;23.27;54.20;100814.69;5063778;28;45707;-63
2021/07/03 05:50:35;;;;;;;;;0.00;0.00;;;;;23.31;54.18;100815.94;5063664;28;45414;-62
2021/07/03 05:53:00;;;;;;;;;0.00;0.00;;;;;23.35;54.29;100811.84;5063833;28;45297;-62
2021/07/03 05:55:26;;;;;;;;;0.00;0.00;;;;;23.46;53.90;100816.59;5055579;28;45248;-63
2021/07/03 05:57:51;;;;;;;;;0.00;0.00;;;;;23.59;53.95;100820.34;5036234;28;46207;-63
2021/07/03 06:00:17;;;;;;;;;0.00;0.00;;;;;23.79;53.61;100821.22;5043755;28;45330;-63
2021/07/03 06:02:42;;;;;;;;;0.00;0.00;;;;;24.03;52.68;100827.03;5043543;28;45370;-62
2021/07/03 06:05:08;;;;;;;;;0.00;0.00;;;;;24.25;52.52;100824.97;5055039;28;45291;-61
2021/07/03 06:07:34;;;;;;;;;0.00;0.00;;;;;24.38;52.11;100821.44;5043069;28;46340;-68
2021/07/03 06:09:59;;;;;;;;;0.00;0.00;;;;;24.59;51.78;100825.78;5043287;28;45383;-60
2021/07/03 06:12:25;;;;;;;;;0.00;0.00;;;;;24.79;51.14;100829.25;5043512;28;45228;-63
2021/07/03 06:14:51;;;;;;;;;0.00;0.00;;;;;24.99;50.67;100826.50;5059800;28;45231;-63
2021/07/03 06:17:17;;;;;;;;;0.00;0.00;;;;;25.10;50.61;100827.72;5054016;28;46233;-62
2021/07/03 06:19:43;;;;;;;;;0.00;0.00;;;;;25.20;50.32;100840.72;5043397;28;46842;-63
2021/07/03 06:22:12;;;;;;;;;0.00;0.00;;;;;25.23;50.16;100827.69;5043107;28;45256;-63
2021/07/03 06:24:42;;;;;;;;;0.00;0.00;;;;;25.21;49.75;100835.13;5034523;28;45569;-63
2021/07/03 06:27:07;;;;;;;;;0.00;0.00;;;;;25.15;49.86;100847.53;5042990;28;46263;-63
2021/07/03 06:29:34;;;;;;;;;0.00;0.00;;;;;25.13;49.91;100846.09;5062964;28;45252;-62
2021/07/03 06:31:59;;;;;;;;;0.00;0.00;;;;;25.13;49.70;100838.84;5062922;28;45517;-62
2021/07/03 06:34:25;;;;;;;;;0.00;0.00;;;;;25.13;50.53;100835.34;5049628;28;45379;-63
2021/07/03 06:36:50;;;;;;;;;0.00;0.00;;;;;25.18;50.45;100835.50;5042579;28;47700;-64
2021/07/03 06:39:15;;;;;;;;;0.00;0.00;;;;;25.27;49.76;100833.44;5044765;28;45501;-62
2021/07/03 06:41:41;;;;;;;;;0.00;0.00;;;;;25.41;49.90;100832.34;5061007;28;45860;-63
2021/07/03 06:44:06;;;;;;;;;0.00;0.00;;;;;25.57;49.54;100831.84;5053089;28;45551;-63
2021/07/03 06:46:31;;;;;;;;;0.00;0.00;;;;;25.72;49.51;100844.16;5042602;28;46274;-62
2021/07/03 06:48:57;;;;;;;;;0.00;0.00;;;;;25.83;48.76;100839.94;5042479;28;45416;-63
2021/07/03 06:51:23;;;;;;;;;0.00;0.00;;;;;25.94;48.64;100833.88;5053977;28;45806;-63
2021/07/03 06:53:49;;;;;;;;;0.00;0.00;;;;;26.21;48.73;100837.22;5058590;28;45573;-64
2021/07/03 06:56:14;;;;;;;;;0.00;0.00;;;;;26.70;47.97;100845.50;5043966;28;46210;-64
2021/07/03 06:58:39;;;;;;;;;0.00;0.00;;;;;27.19;46.90;100849.06;5042108;28;45434;-63
2021/07/03 07:01:05;;;;;;;;;0.00;0.00;;;;;27.57;45.52;100845.28;5032935;28;45264;-63
2021/07/03 07:03:30;;;;;;;;;0.00;0.00;;;;;27.83;44.48;100844.88;5053705;28;46048;-64
2021/07/03 07:05:55;;;;;;;;;0.00;0.00;;;;;27.92;44.02;100853.50;5042255;28;50721;-63
2021/07/03 07:08:21;;;;;;;;;0.00;0.00;;;;;27.87;44.03;100847.97;5028206;28;45519;-63
2021/07/03 07:10:46;;;;;;;;;0.00;0.00;;;;;27.75;43.92;100849.78;5055390;28;45331;-63
2021/07/03 07:13:12;;;;;;;;;0.00;0.00;;;;;27.69;43.88;100848.00;5052347;28;45150;-64
2021/07/03 07:15:37;;;;;;;;;0.00;0.00;;;;;27.71;43.97;100848.59;5060383;28;45649;-62
2021/07/03 07:18:03;;;;;;;;;0.00;0.00;;;;;27.77;43.90;100853.09;5057039;28;45502;-62
2021/07/03 07:20:28;;;;;;;;;0.00;0.00;;;;;27.78;43.80;100858.25;5058825;28;45319;-63
2021/07/03 07:22:53;;;;;;;;;0.00;0.00;;;;;27.78;43.64;100860.13;5060394;28;45533;-64
2021/07/03 07:25:19;;;;;;;;;0.00;0.00;;;;;27.76;43.98;100852.25;5060194;28;51502;-66
2021/07/03 07:27:44;;;;;;;;;0.00;0.00;;;;;27.77;43.44;100867.38;5058324;28;45251;-63
2021/07/03 07:30:10;;;;;;;;;0.00;0.00;;;;;27.75;43.34;100874.06;5060300;28;45460;-63
2021/07/03 07:32:36;;;;;;;;;0.00;0.00;;;;;27.75;43.76;100874.06;5062170;28;45570;-63
2021/07/03 07:35:01;;;;;;;;;0.00;0.00;;;;;27.80;43.79;100883.13;5038411;28;46755;-63
2021/07/03 07:37:27;;;;;;;;;0.00;0.00;;;;;28.03;43.32;100881.56;5061669;28;45321;-77
2021/07/03 07:39:53;;;;;;;;;0.00;0.00;;;;;28.34;42.88;100871.53;5043967;28;45318;-64
2021/07/03 07:42:18;;;;;;;;;0.00;0.00;;;;;28.58;42.52;100883.22;5061212;28;45702;-64
2021/07/03 07:44:43;;;;;;;;;0.00;0.00;;;;;28.78;42.03;100885.53;5058962;28;45393;-62
2021/07/03 07:47:09;;;;;;;;;0.00;0.00;;;;;28.97;41.63;100888.94;5041441;28;45426;-63
2021/07/03 07:49:34;;;;;;;;;0.00;0.00;;;;;29.03;42.00;100896.09;5041643;28;45244;-62
2021/07/03 07:52:00;;;;;;;;;0.00;0.00;;;;;28.96;41.67;100885.41;5041066;28;45245;-64
2021/07/03 07:54:25;;;;;;;;;0.00;0.00;;;;;28.88;41.74;100890.34;5043033;28;46103;-64
2021/07/03 07:56:50;;;;;;;;;0.00;0.00;;;;;28.76;41.43;100903.88;5050654;28;45292;-63
2021/07/03 07:59:16;;;;;;;;;0.00;0.00;;;;;28.70;42.13;100904.81;5041245;28;45255;-63
2021/07/03 08:01:41;;;;;;;;;0.00;0.00;;;;;28.61;42.07;100904.34;5041436;28;45414;-63
2021/07/03 08:04:06;;;;;;;;;0.00;0.00;;;;;28.57;42.17;100893.16;5049186;28;46277;-64
2021/07/03 08:06:32;;;;;;;;;0.00;0.00;;;;;28.57;42.04;100882.38;5043238;28;45635;-65
2021/07/03 08:08:57;;;;;;;;;0.00;0.00;;;;;28.50;41.81;100881.66;5058464;28;45406;-70
2021/07/03 08:11:23;;;;;;;;;0.00;0.00;;;;;28.39;41.96;100888.69;5042747;28;45237;-63
2021/07/03 08:13:48;;;;;;;;;0.00;0.00;;;;;28.23;41.76;100884.78;5044530;28;46376;-65
2021/07/03 08:16:14;;;;;;;;;0.00;0.00;;;;;28.06;42.09;100881.13;5023073;28;45290;-65
2021/07/03 08:18:39;;;;;;;;;0.00;0.00;;;;;27.86;41.44;100872.50;5022792;28;45162;-65
2021/07/03 08:21:05;;;;;;;;;0.00;0.00;;;;;27.73;42.19;100892.38;5041273;28;45377;-65
2021/07/03 08:23:30;;;;;;;;;0.00;0.00;;;;;27.55;42.36;100887.84;5022872;28;47402;-65
2021/07/03 08:25:55;;;;;;;;;0.00;0.00;;;;;27.41;42.88;100898.00;5022616;28;45794;-64
2021/07/03 08:28:21;;;;;;;;;0.00;0.00;;;;;27.23;42.76;100890.72;5040773;28;45388;-65
2021/07/03 08:30:46;;;;;;;;;0.00;0.00;;;;;27.10;42.87;100888.16;5041137;28;45534;-65
2021/07/03 08:33:12;;;;;;;;;0.00;0.00;;;;;26.98;43.40;100885.41;5040737;28;45441;-65
2021/07/03 08:35:37;;;;;;;;;0.00;0.00;;;;;26.89;43.69;100890.28;5022834;28;45407;-65
2021/07/03 08:38:03;;;;;;;;;0.00;0.00;;;;;26.83;43.62;100893.03;5040666;28;45319;-65
2021/07/03 08:40:31;;;;;;;;;0.00;0.00;;;;;26.77;44.06;100889.34;5022431;28;45619;-66
2021/07/03 08:42:56;;;;;;;;;0.00;0.00;;;;;26.67;44.18;100889.84;5034824;28;48303;-65
2021/07/03 08:45:21;;;;;;;;;0.00;0.00;;;;;26.61;44.26;100890.75;5040756;28;45161;-65
2021/07/03 08:47:47;;;;;;;;;0.00;0.00;;;;;26.49;44.44;100895.19;5040771;28;46118;-63
2021/07/03 08:50:15;;;;;;;;;0.00;0.00;;;;;26.34;44.28;100890.13;5041087;28;45400;-64
2021/07/03 08:52:41;;;;;;;;;0.00;0.00;;;;;26.21;45.08;100896.44;5040032;28;46276;-65
2021/07/03 08:55:24;;;;;;;;;0.00;0.00;;;;;26.17;44.79;100903.28;5031022;28;45291;-64
2021/07/03 08:57:52;;;;;;;;;0.00;0.00;;;;;26.08;45.25;100905.44;5041667;28;45363;-65
2021/07/03 09:00:29;;;;;;;;;0.00;0.00;;;;;25.99;45.65;100909.44;5061033;28;45363;-63
2021/07/03 09:02:54;;;;;;;;;0.00;0.00;;;;;25.89;45.99;100922.53;5042133;28;47446;-65
2021/07/03 09:05:21;;;;;;;;;0.00;0.00;;;;;25.84;46.48;100916.94;5047763;28;45395;-64
2021/07/03 09:07:47;;;;;;;;;0.00;0.00;;;;;25.79;46.33;100912.22;5041946;28;45181;-64
2021/07/03 09:10:12;;;;;;;;;0.00;0.00;;;;;25.72;46.68;100906.03;5044193;28;45212;-64
2021/07/03 09:12:38;;;;;;;;;0.00;0.00;;;;;25.74;46.55;100907.47;5043328;28;45302;-64
2021/07/03 09:15:12;;;;;;;;;0.00;0.00;;;;;25.85;46.87;100905.13;5043909;28;45162;-64
2021/07/03 09:17:47;;;;;;;;;0.00;0.00;;;;;25.98;47.54;100897.84;5026201;28;45192;-65
2021/07/03 09:20:13;;;;;;;;;0.00;0.00;;;;;26.18;47.22;100899.56;5043931;28;45398;-64
2021/07/03 09:22:38;;;;;;;;;0.00;0.00;;;;;26.37;46.58;100897.75;5043711;28;45253;-64
2021/07/03 09:25:20;;;;;;;;;0.00;0.00;;;;;26.58;46.29;100910.84;5043490;28;45442;-65
2021/07/03 09:27:46;;;;;;;;;0.00;0.00;;;;;26.71;46.69;100911.78;5043347;28;45414;-65
2021/07/03 09:30:14;;;;;;;;;0.00;0.00;;;;;26.81;46.61;100906.72;5043550;28;45147;-64
2021/07/03 09:32:47;;;;;;;;;0.00;0.00;;;;;26.86;46.36;100908.75;5042901;28;45718;-65
2021/07/03 09:35:13;;;;;;;;;0.00;0.00;;;;;26.76;45.83;100910.09;5043049;28;45268;-64
2021/07/03 09:37:39;;;;;;;;;0.00;0.00;;;;;26.64;46.43;100914.56;5025481;28;45491;-65
2021/07/03 09:40:09;;;;;;;;;0.00;0.00;;;;;26.58;46.49;100921.63;5043330;28;45398;-66
2021/07/03 09:42:39;;;;;;;;;0.00;0.00;;;;;26.51;46.42;100915.47;5042930;28;46293;-65
2021/07/03 09:45:06;;;;;;;;;0.00;0.00;;;;;26.50;46.15;100923.75;5043133;28;45530;-65
2021/07/03 09:47:32;;;;;;;;;0.00;0.00;;;;;26.47;46.60;100927.72;5043514;28;45326;-66
2021/07/03 09:50:12;;;;;;;;;0.00;0.00;;;;;26.47;46.67;100930.41;5041839;28;45436;-66
2021/07/03 09:52:38;;;;;;;;;0.00;0.00;;;;;26.47;46.34;100921.50;5024249;28;47164;-66
2021/07/03 09:55:08;;;;;;;;;0.00;0.00;;;;;26.52;46.57;100918.97;5051444;28;45446;-64
2021/07/03 09:57:36;;;;;;;;;0.00;0.00;;;;;26.62;46.33;100929.28;5028802;28;45404;-65
2021/07/03 10:00:06;;;;;;;;;0.00;0.00;;;;;26.71;46.11;100923.38;5025307;28;45506;-66
2021/07/03 10:02:33;;;;;;;;;0.00;0.00;;;;;26.72;45.81;100913.44;5042724;28;46441;-64
2021/07/03 10:04:59;;;;;;;;;0.00;0.00;;;;;26.92;45.97;100929.41;5032187;28;45344;-66
2021/07/03 10:08:01;;;;;;;;;0.00;0.00;;;;;27.15;45.29;100939.56;5038716;28;45331;-65
2021/07/03 10:10:28;;;;;;;;;16.00;16.00;;;;;27.26;45.14;100940.69;5038969;28;45339;-65
2021/07/03 10:13:03;;;;;;;;;0.00;0.00;;;;;27.39;44.62;100932.47;5044618;28;48369;-65
2021/07/03 10:15:33;;;;;;;;;0.00;0.00;;;;;27.57;44.24;100937.00;5062841;28;45431;-65
2021/07/03 10:18:15;;;;;;;;;0.00;0.00;;;;;27.60;44.18;100925.75;5045075;28;45288;-65
2021/07/03 10:20:44;;;;;;;;;0.00;0.00;;;;;27.49;43.93;100913.84;5062227;28;45383;-65
2021/07/03 10:23:11;;;;;;;;;0.00;0.00;;;;;27.46;43.42;100924.28;5062365;28;45437;-64
2021/07/03 10:25:39;;;;;;;;;0.00;0.00;;;;;27.42;43.79;100918.50;5062067;28;45478;-65
2021/07/03 10:28:09;;;;;;;;;0.00;0.00;;;;;27.50;43.79;100912.00;5062220;28;45324;-65
2021/07/03 10:30:37;;;;;;;;;0.00;0.00;;;;;27.72;43.73;100918.53;5062775;28;45457;-64
2021/07/03 10:33:17;;;;;;;;;0.00;0.00;;;;;27.97;43.01;100921.13;5062072;28;45494;-65
2021/07/03 10:35:46;;;;;;;;;0.00;0.00;;;;;28.11;42.72;100913.66;5062530;28;45398;-65
2021/07/03 10:38:15;;;;;;;;;0.00;0.00;;;;;28.39;42.51;100926.50;5062418;28;45408;-64
2021/07/03 10:40:41;;;;;;;;;0.00;0.00;;;;;28.84;41.61;100917.84;5062378;28;45516;-65
2021/07/03 10:43:10;;;;;;;;;0.00;0.00;;;;;29.30;40.86;100917.22;5043571;28;47523;-64
2021/07/03 10:45:48;;;;;;;;;0.00;0.00;;;;;29.67;40.09;100925.78;5061853;28;45462;-65
2021/07/03 10:48:16;;;;;;;;;0.00;0.00;;;;;30.07;40.00;100924.94;5061966;28;45319;-64
2021/07/03 10:50:41;;;;;;;;;0.00;0.00;;;;;30.51;38.64;100914.28;5060585;28;45544;-64
2021/07/03 10:53:19;;;;;;;;;0.00;0.00;;;;;30.83;37.29;100925.34;5061767;28;45454;-66
2021/07/03 10:55:45;;;;;;;;;0.00;0.00;;;;;31.23;37.53;100934.28;5059962;28;45366;-64
2021/07/03 10:58:19;;;;;;;;;0.00;0.00;;;;;31.68;36.49;100916.94;5040286;28;45325;-66
2021/07/03 11:00:47;;;;;;;;;0.00;0.00;;;;;32.13;35.45;100917.66;5041473;28;45248;-65
2021/07/03 11:03:15;;;;;;;;;0.00;0.00;;;;;32.48;34.78;100923.38;5044851;28;45371;-67
2021/07/03 11:05:40;;;;;;;;;0.00;0.00;;;;;32.77;33.63;100916.81;5046290;28;45185;-65
2021/07/03 11:08:13;;;;;;;;;0.00;0.00;;;;;33.17;32.72;100912.66;5041601;28;45246;-63
2021/07/03 11:10:41;;;;;;;;;0.00;0.00;;;;;33.69;32.44;100912.59;5041429;28;45315;-66
2021/07/03 11:13:17;;;;;;;;;0.00;0.00;;;;;34.41;30.65;100912.63;5041526;28;45467;-65
2021/07/03 11:15:42;;;;;;;;;0.00;0.00;;;;;34.97;29.97;100913.59;5041401;28;45243;-65
2021/07/03 11:18:07;;;;;;;;;0.00;0.00;;;;;35.39;28.92;100910.44;5042054;28;45204;-65
2021/07/03 11:20:35;;;;;;;;;0.00;0.00;;;;;35.68;28.86;100904.28;5041737;28;45174;-66